Observation data for Guthrie on 11/18/2019      Previous  Date       Current Mesonet Observations  Soil Data  Daily Summary Page  Observations in Plain Language
KPFS 180600Z 19004KT 05/00 A3005 RMK A01 T00520004  RH  072%=      5-min Rain = 0
KPFS 180605Z 20004KT 05/01 A3004 RMK A01 T00520005  RH  072%=      5-min Rain = 0
KPFS 180610Z 20004KT 05/01 A3004 RMK A01 T00540005  RH  072%=      5-min Rain = 0
KPFS 180615Z 20005KT 06/01 A3004 RMK A01 T00550005  RH  071%=      5-min Rain = 0
KPFS 180620Z 20004KT 06/01 A3004 RMK A01 T00550005  RH  071%=      5-min Rain = 0
KPFS 180625Z 20003KT 06/01 A3004 RMK A01 T00550005  RH  071%=      5-min Rain = 0
KPFS 180630Z 20003KT 06/01 A3004 RMK A01 T00560006  RH  071%=      5-min Rain = 0
KPFS 180635Z 21003KT 06/01 A3004 RMK A01 T00580006  RH  070%=      5-min Rain = 0
KPFS 180640Z 22002KT 06/01 A3004 RMK A01 T00600006  RH  069%=      5-min Rain = 0
KPFS 180645Z 23003KT 06/01 A3004 RMK A01 T00590006  RH  069%=      5-min Rain = 0
KPFS 180650Z 22003KT 06/01 A3004 RMK A01 T00600007  RH  070%=      5-min Rain = 0
KPFS 180655Z 21003KT 06/01 A3003 RMK A01 T00590007  RH  070%=      5-min Rain = 0
KPFS 180700Z 20002KT 06/01 A3003 RMK A01 T00560007  RH  072%=      5-min Rain = 0
KPFS 180705Z 20003KT 05/01 A3003 RMK A01 T00540008  RH  073%=      5-min Rain = 0
KPFS 180710Z 21003KT 05/01 A3003 RMK A01 T00540008  RH  073%=      5-min Rain = 0
KPFS 180715Z 21004KT 05/01 A3003 RMK A01 T00530008  RH  074%=      5-min Rain = 0
KPFS 180720Z 21004KT 05/01 A3003 RMK A01 T00540009  RH  074%=      5-min Rain = 0
KPFS 180725Z 21004KT 05/01 A3003 RMK A01 T00540008  RH  073%=      5-min Rain = 0
KPFS 180730Z 21003KT 05/01 A3003 RMK A01 T00540008  RH  073%=      5-min Rain = 0
KPFS 180735Z 21003KT 05/01 A3003 RMK A01 T00540008  RH  073%=      5-min Rain = 0
KPFS 180740Z 21004KT 05/01 A3003 RMK A01 T00520007  RH  074%=      5-min Rain = 0
KPFS 180745Z 21004KT 05/01 A3002 RMK A01 T00480006  RH  075%=      5-min Rain = 0
KPFS 180750Z 21004KT 05/01 A3002 RMK A01 T00450006  RH  076%=      5-min Rain = 0
KPFS 180755Z 21004KT 04/01 A3002 RMK A01 T00430005  RH  078%=      5-min Rain = 0
KPFS 180800Z 21005KT 04/01 A3001 RMK A01 T00430006  RH  078%=      5-min Rain = 0
KPFS 180805Z 22005KT 05/01 A3001 RMK A01 T00470008  RH  077%=      5-min Rain = 0
KPFS 180810Z 22005KT 05/01 A3001 RMK A01 T00480007  RH  076%=      5-min Rain = 0
KPFS 180815Z 22004KT 05/01 A30 RMK A01 T00470007  RH  076%=      5-min Rain = 0
KPFS 180820Z 22004KT 05/01 A30 RMK A01 T00470007  RH  076%=      5-min Rain = 0
KPFS 180825Z 22003KT 05/01 A30 RMK A01 T00480008  RH  076%=      5-min Rain = 0
KPFS 180830Z 22004KT 05/01 A30 RMK A01 T00490008  RH  075%=      5-min Rain = 0
KPFS 180835Z 22006KT 05/01 A30 RMK A01 T00510008  RH  075%=      5-min Rain = 0
KPFS 180840Z 22005KT 05/01 A30 RMK A01 T00520008  RH  074%=      5-min Rain = 0
KPFS 180845Z 22004KT 05/01 A2999 RMK A01 T00500006  RH  075%=      5-min Rain = 0
KPFS 180850Z 22002KT 05/01 A2999 RMK A01 T00470006  RH  075%=      5-min Rain = 0
KPFS 180855Z 21002KT 05/01 A2999 RMK A01 T00460006  RH  076%=      5-min Rain = 0
KPFS 180900Z 21002KT 05/01 A2999 RMK A01 T00460005  RH  076%=      5-min Rain = 0
KPFS 180905Z 20002KT 04/00 A2999 RMK A01 T00440004  RH  077%=      5-min Rain = 0
KPFS 180910Z 21003KT 04/00 A2999 RMK A01 T00400003  RH  078%=      5-min Rain = 0
KPFS 180915Z 22003KT 04/01 A2999 RMK A01 T00390005  RH  079%=      5-min Rain = 0
KPFS 180920Z 21003KT 04/01 A2999 RMK A01 T00410006  RH  079%=      5-min Rain = 0
KPFS 180925Z 21004KT 04/01 A2999 RMK A01 T00420006  RH  079%=      5-min Rain = 0
KPFS 180930Z 21004KT 04/01 A2999 RMK A01 T00440006  RH  077%=      5-min Rain = 0
KPFS 180935Z 21005KT 04/01 A2998 RMK A01 T00410005  RH  078%=      5-min Rain = 0
KPFS 180940Z 22005KT 04/01 A2998 RMK A01 T00410006  RH  079%=      5-min Rain = 0
KPFS 180945Z 22004KT 04/01 A2998 RMK A01 T00430006  RH  078%=      5-min Rain = 0
KPFS 180950Z 22004KT 04/01 A2998 RMK A01 T00430006  RH  078%=      5-min Rain = 0
KPFS 180955Z 21004KT 04/01 A2998 RMK A01 T00440006  RH  077%=      5-min Rain = 0
KPFS 181000Z 20004KT 04/01 A2998 RMK A01 T00430006  RH  078%=      5-min Rain = 0
KPFS 181005Z 21004KT 04/01 A2998 RMK A01 T00420005  RH  078%=      5-min Rain = 0
KPFS 181010Z 21004KT 04/01 A2998 RMK A01 T00420006  RH  078%=      5-min Rain = 0
KPFS 181015Z 21005KT 04/01 A2998 RMK A01 T00420006  RH  078%=      5-min Rain = 0
KPFS 181020Z 21006KT 04/01 A2997 RMK A01 T00410006  RH  079%=      5-min Rain = 0
KPFS 181025Z 21006KT 04/01 A2997 RMK A01 T00420007  RH  079%=      5-min Rain = 0
KPFS 181030Z 21007KT 04/01 A2997 RMK A01 T00430007  RH  079%=      5-min Rain = 0
KPFS 181035Z 21007KT 04/01 A2997 RMK A01 T00410006  RH  079%=      5-min Rain = 0
KPFS 181040Z 21007KT 04/01 A2997 RMK A01 T00390005  RH  080%=      5-min Rain = 0
KPFS 181045Z 21006KT 04/01 A2997 RMK A01 T00400007  RH  080%=      5-min Rain = 0
KPFS 181050Z 21007KT 04/01 A2996 RMK A01 T00440008  RH  079%=      5-min Rain = 0
KPFS 181055Z 21007KT 04/01 A2996 RMK A01 T00410006  RH  079%=      5-min Rain = 0
KPFS 181100Z 21007KT 04/01 A2996 RMK A01 T00390006  RH  080%=      5-min Rain = 0
KPFS 181105Z 21006KT 04/01 A2996 RMK A01 T00370005  RH  081%=      5-min Rain = 0
KPFS 181110Z 22006KT 04/01 A2996 RMK A01 T00360005  RH  081%=      5-min Rain = 0
KPFS 181115Z 22007KT 03/01 A2996 RMK A01 T00340005  RH  082%=      5-min Rain = 0
KPFS 181120Z 22007KT 04/01 A2996 RMK A01 T00360007  RH  082%=      5-min Rain = 0
KPFS 181125Z 22007KT 04/01 A2996 RMK A01 T00380008  RH  081%=      5-min Rain = 0
KPFS 181130Z 22007KT 04/01 A2996 RMK A01 T00380007  RH  081%=      5-min Rain = 0
KPFS 181135Z 22007KT 04/01 A2996 RMK A01 T00370007  RH  082%=      5-min Rain = 0
KPFS 181140Z 22007KT 04/01 A2996 RMK A01 T00380007  RH  081%=      5-min Rain = 0
KPFS 181145Z 21006KT 04/01 A2996 RMK A01 T00400008  RH  081%=      5-min Rain = 0
KPFS 181150Z 21006KT 04/01 A2996 RMK A01 T00400008  RH  081%=      5-min Rain = 0
KPFS 181155Z 21007KT 04/01 A2996 RMK A01 T00430010  RH  080%=      5-min Rain = 0
KPFS 181200Z 21007KT 04/01 A2997 RMK A01 T00440009  RH  079%=      5-min Rain = 0
KPFS 181205Z 20006KT 05/01 A2997 RMK A01 T00470010  RH  078%=      5-min Rain = 0
KPFS 181210Z 20005KT 05/01 A2997 RMK A01 T00460009  RH  078%=      5-min Rain = 0
KPFS 181215Z 20006KT 05/01 A2996 RMK A01 T00450010  RH  079%=      5-min Rain = 0
KPFS 181220Z 20006KT 04/01 A2996 RMK A01 T00440010  RH  080%=      5-min Rain = 0
KPFS 181225Z 19006KT 04/01 A2997 RMK A01 T00420010  RH  081%=      5-min Rain = 0
KPFS 181230Z 19007KT 04/01 A2996 RMK A01 T00440011  RH  080%=      5-min Rain = 0
KPFS 181235Z 19007KT 04/01 A2996 RMK A01 T00430010  RH  080%=      5-min Rain = 0
KPFS 181240Z 20007KT 05/01 A2996 RMK A01 T00470012  RH  079%=      5-min Rain = 0
KPFS 181245Z 20007KT 05/01 A2996 RMK A01 T00500012  RH  078%=      5-min Rain = 0
KPFS 181250Z 20008KT 05/01 A2996 RMK A01 T00510012  RH  077%=      5-min Rain = 0
KPFS 181255Z 21008KT 05/01 A2996 RMK A01 T00520012  RH  077%=      5-min Rain = 0
KPFS 181300Z 21006KT 05/01 A2996 RMK A01 T00510011  RH  077%=      5-min Rain = 0
KPFS 181305Z 20006KT 05/01 A2997 RMK A01 T00480010  RH  077%=      5-min Rain = 0
KPFS 181310Z 20007KT 05/01 A2997 RMK A01 T00470010  RH  078%=      5-min Rain = 0
KPFS 181315Z 20007KT 05/01 A2997 RMK A01 T00470011  RH  078%=      5-min Rain = 0
KPFS 181320Z 20007KT 05/01 A2997 RMK A01 T00470011  RH  079%=      5-min Rain = 0
KPFS 181325Z 20007KT 05/01 A2997 RMK A01 T00500013  RH  078%=      5-min Rain = 0
KPFS 181330Z 20007KT 05/01 A2997 RMK A01 T00530014  RH  077%=      5-min Rain = 0
KPFS 181335Z 20006KT 06/01 A2998 RMK A01 T00560014  RH  076%=      5-min Rain = 0
KPFS 181340Z 21006KT 06/01 A2998 RMK A01 T00570014  RH  075%=      5-min Rain = 0
KPFS 181345Z 22005KT 06/01 A2998 RMK A01 T00560013  RH  075%=      5-min Rain = 0
KPFS 181350Z 22004KT 05/01 A2998 RMK A01 T00530012  RH  076%=      5-min Rain = 0
KPFS 181355Z 22005KT 05/01 A2998 RMK A01 T00510011  RH  077%=      5-min Rain = 0
KPFS 181400Z 22005KT 05/01 A2998 RMK A01 T00500012  RH  078%=      5-min Rain = 0
KPFS 181405Z 21006KT 05/01 A2998 RMK A01 T00510013  RH  078%=      5-min Rain = 0
KPFS 181410Z 21006KT 05/02 A2998 RMK A01 T00520015  RH  078%=      5-min Rain = 0
KPFS 181415Z 21006KT 06/02 A2998 RMK A01 T00570016  RH  076%=      5-min Rain = 0
KPFS 181420Z 21006KT 06/02 A2998 RMK A01 T00630018  RH  074%=      5-min Rain = 0
KPFS 181425Z 21006KT 07/02 A2998 RMK A01 T00670020  RH  073%=      5-min Rain = 0
KPFS 181430Z 20006KT 07/02 A2998 RMK A01 T00720022  RH  072%=      5-min Rain = 0
KPFS 181435Z 22007KT 08/02 A2998 RMK A01 T00780024  RH  070%=      5-min Rain = 0
KPFS 181440Z 22007KT 08/03 A2998 RMK A01 T00840027  RH  068%=      5-min Rain = 0
KPFS 181445Z 22007KT 09/03 A2998 RMK A01 T00910029  RH  066%=      5-min Rain = 0
KPFS 181450Z 22008KT 10/03 A2998 RMK A01 T00960030  RH  064%=      5-min Rain = 0
KPFS 181455Z 22007KT 10/03 A2998 RMK A01 T01020030  RH  062%=      5-min Rain = 0
KPFS 181500Z 22008KT 11/03 A2998 RMK A01 T01070031  RH  061%=      5-min Rain = 0
KPFS 181505Z 22009KT 11/03 A2998 RMK A01 T01100029  RH  058%=      5-min Rain = 0
KPFS 181510Z 22007KT 12/03 A2998 RMK A01 T01150031  RH  057%=      5-min Rain = 0
KPFS 181515Z 22009KT 12/03 A2997 RMK A01 T01180031  RH  056%=      5-min Rain = 0
KPFS 181520Z 22009KT 12/03 A2997 RMK A01 T01200030  RH  055%=      5-min Rain = 0
KPFS 181525Z 22009KT 12/03 A2997 RMK A01 T01240030  RH  054%=      5-min Rain = 0
KPFS 181530Z 22012KT 13/03 A2996 RMK A01 T01270027  RH  051%=      5-min Rain = 0
KPFS 181535Z 23011KT 13/03 A2996 RMK A01 T01310027  RH  050%=      5-min Rain = 0
KPFS 181540Z 23009KT 14/03 A2997 RMK A01 T01360029  RH  049%=      5-min Rain = 0
KPFS 181545Z 22008KT 14/03 A2997 RMK A01 T01420030  RH  048%=      5-min Rain = 0
KPFS 181550Z 23011KT 14/03 A2997 RMK A01 T01440027  RH  046%=      5-min Rain = 0
KPFS 181555Z 23009KT 15/03 A2997 RMK A01 T01470028  RH  045%=      5-min Rain = 0
KPFS 181600Z 23010KT 15/03 A2997 RMK A01 T01510028  RH  044%=      5-min Rain = 0
KPFS 181605Z 24009KT 16/03 A2997 RMK A01 T01560028  RH  043%=      5-min Rain = 0
KPFS 181610Z 24009KT 16/03 A2997 RMK A01 T01590027  RH  042%=      5-min Rain = 0
KPFS 181615Z 23009KT 16/03 A2997 RMK A01 T01630026  RH  041%=      5-min Rain = 0
KPFS 181620Z 22010KT 17/03 A2997 RMK A01 T01660026  RH  040%=      5-min Rain = 0
KPFS 181625Z 22010KT 17/03 A2996 RMK A01 T01690026  RH  039%=      5-min Rain = 0
KPFS 181630Z 22010G15KT 17/03 A2996 RMK A01 T01720025  RH  038%=      5-min Rain = 0
KPFS 181635Z 22011KT 17/02 A2996 RMK A01 T01740023  RH  037%=      5-min Rain = 0
KPFS 181640Z 23009G16KT 18/02 A2996 RMK A01 T01770024  RH  036%=      5-min Rain = 0
KPFS 181645Z 22011KT 18/02 A2996 RMK A01 T01760022  RH  036%=      5-min Rain = 0
KPFS 181650Z 22010KT 18/02 A2996 RMK A01 T01770024  RH  036%=      5-min Rain = 0
KPFS 181655Z 22010KT 18/03 A2996 RMK A01 T01820025  RH  036%=      5-min Rain = 0
KPFS 181700Z 23011G17KT 18/02 A2996 RMK A01 T01840023  RH  035%=      5-min Rain = 0
KPFS 181705Z 23013KT 18/02 A2996 RMK A01 T01840020  RH  034%=      5-min Rain = 0
KPFS 181710Z 22012KT 19/02 A2995 RMK A01 T01870020  RH  033%=      5-min Rain = 0
KPFS 181715Z 23012KT 19/02 A2995 RMK A01 T01880020  RH  033%=      5-min Rain = 0
KPFS 181720Z 22012G18KT 19/02 A2995 RMK A01 T01900018  RH  032%=      5-min Rain = 0
KPFS 181725Z 23012KT 19/02 A2995 RMK A01 T01920019  RH  032%=      5-min Rain = 0
KPFS 181730Z 23013KT 19/02 A2995 RMK A01 T01930018  RH  032%=      5-min Rain = 0
KPFS 181735Z 22012KT 20/02 A2994 RMK A01 T01960019  RH  031%=      5-min Rain = 0
KPFS 181740Z 23012KT 20/02 A2994 RMK A01 T01960019  RH  031%=      5-min Rain = 0
KPFS 181745Z 23012G17KT 20/02 A2994 RMK A01 T01980018  RH  031%=      5-min Rain = 0
KPFS 181750Z 23012G17KT 20/02 A2993 RMK A01 T02010019  RH  030%=      5-min Rain = 0
KPFS 181755Z 21013G19KT 20/02 A2992 RMK A01 T02040020  RH  030%=      5-min Rain = 0
KPFS 181800Z 22012G18KT 20/02 A2992 RMK A01 T02040019  RH  030%=      5-min Rain = 0
KPFS 181805Z 23010G15KT 21/02 A2993 RMK A01 T02060021  RH  030%=      5-min Rain = 0
KPFS 181810Z 23011KT 21/02 A2992 RMK A01 T02070022  RH  030%=      5-min Rain = 0
KPFS 181815Z 21011KT 21/02 A2992 RMK A01 T02050021  RH  030%=      5-min Rain = 0
KPFS 181820Z 23009G14KT 21/02 A2992 RMK A01 T02080021  RH  029%=      5-min Rain = 0
KPFS 181825Z 22009KT 21/02 A2991 RMK A01 T02120023  RH  029%=      5-min Rain = 0
KPFS 181830Z 21009G14KT 21/02 A2991 RMK A01 T02140022  RH  029%=      5-min Rain = 0
KPFS 181835Z 21010KT 21/02 A2991 RMK A01 T02130021  RH  029%=      5-min Rain = 0
KPFS 181840Z 22009G14KT 21/02 A2991 RMK A01 T02140021  RH  028%=      5-min Rain = 0
KPFS 181845Z 23010KT 21/02 A299 RMK A01 T02120019  RH  028%=      5-min Rain = 0
KPFS 181850Z 25007KT 22/02 A299 RMK A01 T02160015  RH  027%=      5-min Rain = 0
KPFS 181855Z 23009KT 22/02 A2989 RMK A01 T02170019  RH  027%=      5-min Rain = 0
KPFS 181900Z 23008KT 22/01 A2989 RMK A01 T02170013  RH  026%=      5-min Rain = 0
KPFS 181905Z 24008KT 22/02 A2989 RMK A01 T02200017  RH  027%=      5-min Rain = 0
KPFS 181910Z 23008KT 22/01 A2988 RMK A01 T02230014  RH  025%=      5-min Rain = 0
KPFS 181915Z 21006KT 22/01 A2988 RMK A01 T02190013  RH  026%=      5-min Rain = 0
KPFS 181920Z 22007KT 22/01 A2988 RMK A01 T02220014  RH  026%=      5-min Rain = 0
KPFS 181925Z 22006KT 23/02 A2988 RMK A01 T02280015  RH  025%=      5-min Rain = 0
KPFS 181930Z 23007G12KT 23/01 A2988 RMK A01 T02310014  RH  024%=      5-min Rain = 0
KPFS 181935Z 24006KT 23/01 A2988 RMK A01 T02250007  RH  024%=      5-min Rain = 0
KPFS 181940Z 23004KT 22/01 A2987 RMK A01 T02240012  RH  025%=      5-min Rain = 0
KPFS 181945Z 22007KT 23/01 A2987 RMK A01 T02300009  RH  024%=      5-min Rain = 0
KPFS 181950Z 23007KT 23/01 A2986 RMK A01 T02310008  RH  023%=      5-min Rain = 0
KPFS 181955Z 24006KT 23/01 A2986 RMK A01 T02310009  RH  023%=      5-min Rain = 0
KPFS 182000Z 23007KT 23/01 A2986 RMK A01 T02320005  RH  023%=      5-min Rain = 0
KPFS 182005Z 25007KT 23/01 A2986 RMK A01 T02310008  RH  023%=      5-min Rain = 0
KPFS 182010Z 24005KT 23/01 A2986 RMK A01 T02340011  RH  023%=      5-min Rain = 0
KPFS 182015Z 25008KT 24/01 A2985 RMK A01 T02350008  RH  023%=      5-min Rain = 0
KPFS 182020Z 26007KT 24/01 A2985 RMK A01 T02370005  RH  022%=      5-min Rain = 0
KPFS 182025Z 26006KT 24/01 A2985 RMK A01 T02380006  RH  022%=      5-min Rain = 0
KPFS 182030Z 20005KT 24/01 A2985 RMK A01 T02380009  RH  022%=      5-min Rain = 0
KPFS 182035Z 24007KT 24/01 A2985 RMK A01 T02380010  RH  022%=      5-min Rain = 0
KPFS 182040Z 25007KT 24/01 A2984 RMK A01 T02360006  RH  022%=      5-min Rain = 0
KPFS 182045Z 20006KT 24/01 A2984 RMK A01 T02380005  RH  022%=      5-min Rain = 0
KPFS 182050Z 24005KT 24/00 A2984 RMK A01 T02360000  RH  021%=      5-min Rain = 0
KPFS 182055Z 25004KT 24/01 A2985 RMK A01 T02380006  RH  022%=      5-min Rain = 0
KPFS 182100Z 23006KT 24/00 A2985 RMK A01 T02390004  RH  021%=      5-min Rain = 0
KPFS 182105Z 22005KT 24/00 A2985 RMK A01 T02420002  RH  021%=      5-min Rain = 0
KPFS 182110Z 24003KT 24/00 A2986 RMK A01 T02370003  RH  022%=      5-min Rain = 0
KPFS 182115Z 25003KT 24/00 A2986 RMK A01 T02400002  RH  021%=      5-min Rain = 0
KPFS 182120Z 24004KT 24/00 A2986 RMK A01 T02390001  RH  021%=      5-min Rain = 0
KPFS 182125Z 22002KT 24/00 A2986 RMK A01 T02390001  RH  021%=      5-min Rain = 0
KPFS 182130Z 22001KT 24/00 A2986 RMK A01 T02430002  RH  021%=      5-min Rain = 0
KPFS 182135Z 19003KT 24/M00 A2986 RMK A01 T02421002  RH  020%=      5-min Rain = 0
KPFS 182140Z 18005KT 24/M01 A2986 RMK A01 T02401009  RH  019%=      5-min Rain = 0
KPFS 182145Z 19005KT 24/M01 A2986 RMK A01 T02381011  RH  019%=      5-min Rain = 0
KPFS 182150Z 20005KT 24/M01 A2986 RMK A01 T02401012  RH  019%=      5-min Rain = 0
KPFS 182155Z 21005KT 24/M01 A2985 RMK A01 T02381011  RH  019%=      5-min Rain = 0
KPFS 182200Z 21007KT 24/M01 A2985 RMK A01 T02381008  RH  020%=      5-min Rain = 0
KPFS 182205Z 19005KT 24/M01 A2986 RMK A01 T02381012  RH  019%=      5-min Rain = 0
KPFS 182210Z 19005G10KT 24/M01 A2986 RMK A01 T02371010  RH  020%=      5-min Rain = 0
KPFS 182215Z 20005KT 24/M01 A2986 RMK A01 T02381007  RH  020%=      5-min Rain = 0
KPFS 182220Z 20006KT 24/M01 A2987 RMK A01 T02361008  RH  020%=      5-min Rain = 0
KPFS 182225Z 22007KT 24/M01 A2987 RMK A01 T02351011  RH  020%=      5-min Rain = 0
KPFS 182230Z 22005KT 24/M01 A2987 RMK A01 T02351010  RH  020%=      5-min Rain = 0
KPFS 182235Z 21005KT 23/M01 A2987 RMK A01 T02341008  RH  020%=      5-min Rain = 0
KPFS 182240Z 23004KT 24/M00 A2987 RMK A01 T02351003  RH  021%=      5-min Rain = 0
KPFS 182245Z 22005KT 23/M01 A2987 RMK A01 T02331005  RH  021%=      5-min Rain = 0
KPFS 182250Z 23004KT 23/M00 A2987 RMK A01 T02311004  RH  021%=      5-min Rain = 0
KPFS 182255Z 23004KT 23/00 A2987 RMK A01 T023100-0  RH  022%=      5-min Rain = 0
KPFS 182300Z 23004KT 23/00 A2987 RMK A01 T02290000  RH  022%=      5-min Rain = 0
KPFS 182305Z 23003KT 23/00 A2987 RMK A01 T02270001  RH  023%=      5-min Rain = 0
KPFS 182310Z 23003KT 23/00 A2987 RMK A01 T022500-0  RH  023%=      5-min Rain = 0
KPFS 182315Z 21003KT 22/M00 A2987 RMK A01 T02221001  RH  023%=      5-min Rain = 0
KPFS 182320Z 21003KT 22/00 A2987 RMK A01 T02180000  RH  024%=      5-min Rain = 0
KPFS 182325Z 20003KT 21/00 A2987 RMK A01 T02130001  RH  025%=      5-min Rain = 0
KPFS 182330Z 21003KT 21/00 A2987 RMK A01 T02080002  RH  026%=      5-min Rain = 0
KPFS 182335Z 20003KT 20/00 A2987 RMK A01 T02020002  RH  026%=      5-min Rain = 0
KPFS 182340Z 21002KT 20/00 A2987 RMK A01 T01990002  RH  027%=      5-min Rain = 0
KPFS 182345Z 21002KT 20/00 A2987 RMK A01 T019900-0  RH  027%=      5-min Rain = 0
KPFS 182350Z 20002KT 20/M00 A2987 RMK A01 T02001001  RH  026%=      5-min Rain = 0
KPFS 182355Z 19002KT 20/M00 A2988 RMK A01 T01971001  RH  027%=      5-min Rain = 0
KPFS 190000Z 19002KT 19/M00 A2988 RMK A01 T01941001  RH  027%=      5-min Rain = 0
KPFS 190005Z 19002KT 20/M00 A2988 RMK A01 T01951001  RH  027%=      5-min Rain = 0
KPFS 190010Z 19001KT 20/M00 A2988 RMK A01 T01961002  RH  027%=      5-min Rain = 0
KPFS 190015Z 19001KT 20/M00 A2988 RMK A01 T01961001  RH  027%=      5-min Rain = 0
KPFS 190020Z 19001KT 20/M00 A2988 RMK A01 T01951001  RH  027%=      5-min Rain = 0
KPFS 190025Z 19001KT 20/M00 A2989 RMK A01 T01971001  RH  027%=      5-min Rain = 0
KPFS 190030Z 18002KT 19/M00 A2989 RMK A01 T01941001  RH  027%=      5-min Rain = 0
KPFS 190035Z 18003KT 19/00 A2989 RMK A01 T018700-0  RH  029%=      5-min Rain = 0
KPFS 190040Z 18003KT 18/00 A2989 RMK A01 T01790001  RH  030%=      5-min Rain = 0
KPFS 190045Z 18003KT 17/00 A2989 RMK A01 T01720002  RH  032%=      5-min Rain = 0
KPFS 190050Z 17002KT 17/00 A2989 RMK A01 T01650003  RH  034%=      5-min Rain = 0
KPFS 190055Z 17002KT 16/01 A2989 RMK A01 T01570006  RH  036%=      5-min Rain = 0
KPFS 190100Z 17002KT 16/01 A299 RMK A01 T01570005  RH  036%=      5-min Rain = 0
KPFS 190105Z 18002KT 17/00 A299 RMK A01 T01660002  RH  033%=      5-min Rain = 0
KPFS 190110Z 18002KT 17/00 A299 RMK A01 T01720002  RH  032%=      5-min Rain = 0
KPFS 190115Z 15004KT 16/01 A2991 RMK A01 T01610006  RH  035%=      5-min Rain = 0
KPFS 190120Z 17004KT 14/01 A2991 RMK A01 T01430012  RH  041%=      5-min Rain = 0
KPFS 190125Z 15005KT 14/01 A2991 RMK A01 T01390012  RH  042%=      5-min Rain = 0
KPFS 190130Z 14006KT 14/01 A2992 RMK A01 T01440009  RH  040%=      5-min Rain = 0
KPFS 190135Z 14005KT 15/01 A2992 RMK A01 T01540007  RH  037%=      5-min Rain = 0
KPFS 190140Z 16004KT 15/01 A2992 RMK A01 T01540006  RH  037%=      5-min Rain = 0
KPFS 190145Z 17003KT 15/01 A2992 RMK A01 T01510006  RH  038%=      5-min Rain = 0
KPFS 190150Z 17002KT 15/01 A2992 RMK A01 T01500006  RH  038%=      5-min Rain = 0
KPFS 190155Z 16002KT 15/01 A2992 RMK A01 T01470006  RH  039%=      5-min Rain = 0
KPFS 190200Z 18002KT 15/01 A2992 RMK A01 T01450007  RH  039%=      5-min Rain = 0
KPFS 190205Z 18002KT 14/01 A2992 RMK A01 T01390008  RH  041%=      5-min Rain = 0
KPFS 190210Z 20002KT 14/01 A2992 RMK A01 T01380009  RH  042%=      5-min Rain = 0
KPFS 190215Z 19002KT 14/01 A2992 RMK A01 T01410009  RH  041%=      5-min Rain = 0
KPFS 190220Z 19001KT 13/01 A2992 RMK A01 T01320010  RH  044%=      5-min Rain = 0
KPFS 190225Z 19001KT 13/01 A2992 RMK A01 T01280011  RH  045%=      5-min Rain = 0
KPFS 190230Z 20002KT 13/01 A2992 RMK A01 T01250012  RH  047%=      5-min Rain = 0
KPFS 190235Z 19002KT 12/01 A2992 RMK A01 T01180014  RH  049%=      5-min Rain = 0
KPFS 190240Z 19002KT 12/01 A2992 RMK A01 T01230013  RH  048%=      5-min Rain = 0
KPFS 190245Z 19004KT 12/01 A2992 RMK A01 T01200013  RH  049%=      5-min Rain = 0
KPFS 190250Z 17004KT 11/02 A2992 RMK A01 T01110015  RH  052%=      5-min Rain = 0
KPFS 190255Z 19004KT 11/02 A2992 RMK A01 T01060015  RH  054%=      5-min Rain = 0
KPFS 190300Z 20003KT 11/01 A2992 RMK A01 T01110012  RH  051%=      5-min Rain = 0
KPFS 190305Z 21003KT 12/01 A2993 RMK A01 T01200010  RH  048%=      5-min Rain = 0
KPFS 190310Z 20003KT 13/01 A2993 RMK A01 T01260009  RH  045%=      5-min Rain = 0
KPFS 190315Z 19002KT 13/01 A2993 RMK A01 T01250009  RH  046%=      5-min Rain = 0
KPFS 190320Z 17002KT 13/01 A2993 RMK A01 T01250008  RH  045%=      5-min Rain = 0
KPFS 190325Z 17002KT 13/01 A2993 RMK A01 T01310008  RH  044%=      5-min Rain = 0
KPFS 190330Z 22002KT 13/01 A2993 RMK A01 T01280009  RH  045%=      5-min Rain = 0
KPFS 190335Z 24002KT 13/01 A2993 RMK A01 T01280007  RH  044%=      5-min Rain = 0
KPFS 190340Z 26002KT 13/01 A2993 RMK A01 T01340005  RH  042%=      5-min Rain = 0
KPFS 190345Z 30002KT 14/01 A2993 RMK A01 T01390005  RH  041%=      5-min Rain = 0
KPFS 190350Z 32002KT 14/01 A2993 RMK A01 T01390005  RH  040%=      5-min Rain = 0
KPFS 190355Z 32002KT 13/01 A2993 RMK A01 T01270006  RH  044%=      5-min Rain = 0
KPFS 190400Z 32002KT 13/01 A2993 RMK A01 T01270007  RH  044%=      5-min Rain = 0
KPFS 190405Z 30002KT 13/01 A2993 RMK A01 T01260007  RH  044%=      5-min Rain = 0
KPFS 190410Z 33003KT 12/01 A2993 RMK A01 T01200008  RH  047%=      5-min Rain = 0
KPFS 190415Z 32004KT 11/01 A2993 RMK A01 T01120010  RH  050%=      5-min Rain = 0
KPFS 190420Z 31004KT 11/01 A2993 RMK A01 T01060011  RH  052%=      5-min Rain = 0
KPFS 190425Z 30003KT 11/01 A2993 RMK A01 T01090011  RH  052%=      5-min Rain = 0
KPFS 190430Z 29003KT 11/01 A2993 RMK A01 T01130011  RH  050%=      5-min Rain = 0
KPFS 190435Z 26002KT 11/01 A2993 RMK A01 T01140011  RH  050%=      5-min Rain = 0
KPFS 190440Z 23002KT 12/01 A2993 RMK A01 T01160010  RH  048%=      5-min Rain = 0
KPFS 190445Z 22002KT 12/01 A2993 RMK A01 T01190009  RH  048%=      5-min Rain = 0
KPFS 190450Z 21002KT 11/01 A2993 RMK A01 T01120010  RH  050%=      5-min Rain = 0
KPFS 190455Z 22002KT 11/01 A2993 RMK A01 T01120010  RH  050%=      5-min Rain = 0
KPFS 190500Z 22003KT 12/01 A2993 RMK A01 T01150009  RH  049%=      5-min Rain = 0
KPFS 190505Z 22002KT 11/01 A2993 RMK A01 T01140010  RH  049%=      5-min Rain = 0
KPFS 190510Z 21002KT 11/01 A2993 RMK A01 T01140011  RH  050%=      5-min Rain = 0
KPFS 190515Z 23002KT 11/01 A2993 RMK A01 T01130011  RH  050%=      5-min Rain = 0
KPFS 190520Z 21002KT 11/01 A2994 RMK A01 T01120012  RH  051%=      5-min Rain = 0
KPFS 190525Z 23002KT 11/01 A2994 RMK A01 T01100012  RH  051%=      5-min Rain = 0
KPFS 190530Z 21002KT 11/01 A2994 RMK A01 T01130012  RH  051%=      5-min Rain = 0
KPFS 190535Z 20002KT 11/01 A2994 RMK A01 T01140012  RH  050%=      5-min Rain = 0
KPFS 190540Z 21003KT 11/01 A2994 RMK A01 T01130013  RH  051%=      5-min Rain = 0
KPFS 190545Z 22003KT 12/01 A2994 RMK A01 T01160013  RH  050%=      5-min Rain = 0
KPFS 190550Z 22004KT 12/01 A2994 RMK A01 T01180012  RH  049%=      5-min Rain = 0
KPFS 190555Z 22003KT 12/01 A2994 RMK A01 T01170012  RH  049%=      5-min Rain = 0

Page generated in 0.009 seconds.